createdAt,value
2022-09-10T00:00:12.106Z,100771.09
2022-09-10T00:05:21.421Z,100773.54
2022-09-10T00:10:31.671Z,100768.13
2022-09-10T00:15:48.189Z,100764.19
2022-09-10T00:21:00.219Z,100757.06
2022-09-10T00:26:22.855Z,100757.19
2022-09-10T00:31:39.449Z,100760.14
2022-09-10T00:36:50.098Z,100770.61
2022-09-10T00:42:00.477Z,100764.89
2022-09-10T00:47:07.711Z,100759.11
2022-09-10T00:52:16.269Z,100756.46
2022-09-10T00:57:29.285Z,100753.13
2022-09-10T01:02:37.680Z,100752.21
2022-09-10T01:07:57.271Z,100749.68
2022-09-10T01:13:26.433Z,100746.88
2022-09-10T01:18:46.382Z,100744.83
2022-09-10T01:24:34.226Z,100740.73
2022-09-10T01:29:53.643Z,100742.14
2022-09-10T01:35:18.150Z,100731.27
2022-09-10T01:40:36.305Z,100731.77
2022-09-10T01:46:20.337Z,100726.86
2022-09-10T01:51:50.563Z,100719.52
2022-09-10T01:57:11.062Z,100721.38
2022-09-10T02:02:43.466Z,100719.75
2022-09-10T02:08:00.426Z,100721.58
2022-09-10T02:13:30.065Z,100717.73
2022-09-10T02:19:02.365Z,100716.89
2022-09-10T02:24:15.434Z,100713.07
2022-09-10T02:29:44.216Z,100710.48
2022-09-10T02:34:55.398Z,100710.56
2022-09-10T02:40:12.322Z,100719.31
2022-09-10T02:45:24.451Z,100721.74
2022-09-10T02:50:42.210Z,100722.83
2022-09-10T02:55:51.074Z,100721.83
2022-09-10T03:01:10.718Z,100723.38
2022-09-10T03:06:30.070Z,100718.98
2022-09-10T03:11:46.806Z,100714.70
2022-09-10T03:16:54.185Z,100703.64
2022-09-10T03:22:06.142Z,100699.58
2022-09-10T03:27:25.509Z,100699.63
2022-09-10T03:32:38.440Z,100700.60
2022-09-10T03:37:56.397Z,100703.45
2022-09-10T03:43:03.890Z,100697.33
2022-09-10T03:48:14.598Z,100690.86
2022-09-10T03:53:22.391Z,100694.64
2022-09-10T03:58:32.523Z,100699.26
2022-09-10T04:03:45.726Z,100705.24
2022-09-10T04:09:04.916Z,100703.88
2022-09-10T04:14:32.594Z,100705.92
2022-09-10T04:19:42.644Z,100698.00
2022-09-10T04:25:00.757Z,100697.11
2022-09-10T04:30:18.037Z,100699.60
2022-09-10T04:35:36.084Z,100697.94
2022-09-10T04:40:47.861Z,100699.80
2022-09-10T04:45:59.396Z,100703.48
2022-09-10T04:51:27.088Z,100703.19
2022-09-10T04:56:44.502Z,100707.64
2022-09-10T05:02:13.120Z,100705.56
2022-09-10T05:07:31.987Z,100704.00
2022-09-10T05:12:42.639Z,100699.42
2022-09-10T05:18:11.202Z,100701.20
2022-09-10T05:23:31.523Z,100703.64
2022-09-10T05:28:40.902Z,100699.44
2022-09-10T05:33:49.525Z,100696.95
2022-09-10T05:38:57.280Z,100690.15
2022-09-10T05:44:03.567Z,100691.17
2022-09-10T05:49:21.058Z,100680.00
2022-09-10T05:54:28.312Z,100680.81
2022-09-10T05:59:44.992Z,100684.65
2022-09-10T06:04:53.316Z,100684.41
2022-09-10T06:10:03.796Z,100687.55
2022-09-10T06:15:36.535Z,100688.01
2022-09-10T06:20:44.188Z,100687.07
2022-09-10T06:26:05.393Z,100682.59
2022-09-10T06:31:19.887Z,100679.14
2022-09-10T06:36:43.860Z,100677.96
2022-09-10T06:41:57.011Z,100676.46
2022-09-10T06:53:22.331Z,100672.45
2022-09-10T06:58:37.011Z,100671.38
2022-09-10T07:03:48.639Z,100670.69
2022-09-10T07:08:58.918Z,100668.64
2022-09-10T07:14:15.042Z,100657.89
2022-09-10T07:19:23.431Z,100659.73
2022-09-10T07:24:34.431Z,100666.81
2022-09-10T07:29:53.305Z,100675.04
2022-09-10T07:35:07.679Z,100672.97
2022-09-10T07:40:15.575Z,100674.05
2022-09-10T07:45:23.720Z,100671.34
2022-09-10T07:50:31.541Z,100669.27
2022-09-10T07:55:40.237Z,100662.52
2022-09-10T08:00:49.450Z,100668.33
2022-09-10T08:06:03.392Z,100681.64
2022-09-10T08:11:13.240Z,100681.15
2022-09-10T08:16:24.285Z,100687.56
2022-09-10T08:21:32.995Z,100686.28
2022-09-10T08:26:40.880Z,100679.83
2022-09-10T08:31:49.069Z,100680.20
2022-09-10T08:37:19.222Z,100679.33
2022-09-10T08:42:28.879Z,100678.15
2022-09-10T08:47:57.073Z,100678.52
2022-09-10T08:53:15.162Z,100678.38
2022-09-10T08:58:25.633Z,100674.95
2022-09-10T09:03:38.138Z,100681.88
2022-09-10T09:08:50.239Z,100675.23
2022-09-10T09:14:11.012Z,100673.95
2022-09-10T09:19:28.525Z,100668.90
2022-09-10T09:24:50.694Z,100664.17
2022-09-10T09:30:02.676Z,100665.00
2022-09-10T09:35:23.898Z,100662.98
2022-09-10T09:40:38.173Z,100663.02
2022-09-10T09:45:48.071Z,100666.61
2022-09-10T09:51:01.498Z,100666.54
2022-09-10T09:56:22.559Z,100664.06
2022-09-10T10:01:30.265Z,100659.78
2022-09-10T10:06:55.731Z,100666.21
2022-09-10T10:12:14.559Z,100669.77
2022-09-10T10:17:31.151Z,100666.27
2022-09-10T10:22:41.536Z,100670.66
2022-09-10T10:27:51.449Z,100675.05
2022-09-10T10:33:00.360Z,100679.22
2022-09-10T10:38:28.623Z,100682.05
2022-09-10T10:43:43.004Z,100682.21
2022-09-10T10:49:07.696Z,100678.83
2022-09-10T10:54:48.909Z,100680.27
2022-09-10T11:00:06.455Z,100680.67
2022-09-10T11:05:32.004Z,100678.23
2022-09-10T11:10:43.871Z,100681.70
2022-09-10T11:15:59.623Z,100681.29
2022-09-10T11:21:15.135Z,100682.14
2022-09-10T11:26:26.783Z,100675.88
2022-09-10T11:31:50.681Z,100674.85
2022-09-10T11:37:19.645Z,100671.14
2022-09-10T11:42:36.742Z,100673.56
2022-09-10T11:48:11.548Z,100671.15
2022-09-10T11:53:28.389Z,100667.21
2022-09-10T11:58:54.738Z,100663.52
2022-09-10T12:04:40.090Z,100649.23
2022-09-10T12:09:58.471Z,100642.80
2022-09-10T12:15:21.881Z,100642.01
2022-09-10T12:20:33.416Z,100638.35
2022-09-10T12:25:44.559Z,100631.48
2022-09-10T12:31:07.249Z,100621.08
2022-09-10T12:36:17.134Z,100613.03
2022-09-10T12:41:58.204Z,100594.44
2022-09-10T12:47:42.420Z,100611.15
2022-09-10T12:53:05.455Z,100630.00
2022-09-10T12:58:54.473Z,100621.85
2022-09-10T13:04:03.212Z,100622.24
2022-09-10T13:09:21.236Z,100618.59
2022-09-10T13:14:37.021Z,100610.04
2022-09-10T13:19:55.534Z,100606.52
2022-09-10T13:25:28.454Z,100609.39
2022-09-10T13:30:36.655Z,100615.13
2022-09-10T13:36:15.437Z,100606.70
2022-09-10T13:41:53.090Z,100602.29
2022-09-10T13:47:11.858Z,100607.25
2022-09-10T13:52:23.116Z,100608.13
2022-09-10T13:57:32.849Z,100608.02
2022-09-10T14:02:51.275Z,100608.23
2022-09-10T14:08:05.342Z,100609.90
2022-09-10T14:13:29.317Z,100612.27
2022-09-10T14:18:51.696Z,100607.73
2022-09-10T14:24:00.770Z,100603.20
2022-09-10T14:29:26.565Z,100600.35
2022-09-10T14:34:43.360Z,100597.18
2022-09-10T14:39:53.646Z,100593.06
2022-09-10T14:45:42.360Z,100589.30
2022-09-10T14:50:49.842Z,100588.48
2022-09-10T14:56:00.145Z,100588.06
2022-09-10T15:01:09.496Z,100591.41
2022-09-10T15:06:16.820Z,100587.33
2022-09-10T15:11:29.236Z,100583.41
2022-09-10T15:16:37.265Z,100581.95
2022-09-10T15:22:04.719Z,100581.83
2022-09-10T15:27:12.481Z,100583.55
2022-09-10T15:32:18.528Z,100583.54
2022-09-10T15:37:25.913Z,100576.19
2022-09-10T15:42:44.120Z,100570.77
2022-09-10T15:47:51.284Z,100571.20
2022-09-10T15:52:58.472Z,100564.85
2022-09-10T15:58:05.713Z,100566.73
2022-09-10T16:03:15.590Z,100569.02
2022-09-10T16:08:22.656Z,100573.56
2022-09-10T16:13:29.835Z,100574.56
2022-09-10T16:18:37.580Z,100571.09
2022-09-10T16:23:48.753Z,100576.13
2022-09-10T16:29:18.087Z,100578.17
2022-09-10T16:34:25.291Z,100577.30
2022-09-10T16:39:32.400Z,100576.60
2022-09-10T16:44:41.342Z,100574.63
2022-09-10T16:49:48.921Z,100576.68
2022-09-10T16:54:57.661Z,100580.66
2022-09-10T17:00:20.212Z,100580.27
2022-09-10T17:05:29.079Z,100581.89
2022-09-10T17:10:38.625Z,100583.20
2022-09-10T17:15:49.158Z,100583.99
2022-09-10T17:20:56.332Z,100580.30
2022-09-10T17:26:12.067Z,100587.28
2022-09-10T17:31:39.790Z,100587.98
2022-09-10T17:36:52.724Z,100591.09
2022-09-10T17:42:20.462Z,100592.02
2022-09-10T17:47:27.077Z,100586.48
2022-09-10T17:52:45.994Z,100589.55
2022-09-10T17:57:53.439Z,100587.39
2022-09-10T18:03:19.589Z,100583.54
2022-09-10T18:08:31.931Z,100584.35
2022-09-10T18:13:39.738Z,100583.52
2022-09-10T18:18:55.612Z,100584.65
2022-09-10T18:24:13.729Z,100589.19
2022-09-10T18:29:41.815Z,100588.44
2022-09-10T18:34:48.999Z,100586.02
2022-09-10T18:39:56.261Z,100588.61
2022-09-10T18:45:06.589Z,100589.52
2022-09-10T18:50:16.897Z,100589.75
2022-09-10T18:55:24.194Z,100589.42
2022-09-10T19:00:32.904Z,100591.05
2022-09-10T19:05:41.040Z,100592.80
2022-09-10T19:10:48.458Z,100596.33
2022-09-10T19:16:04.917Z,100597.25
2022-09-10T19:21:15.244Z,100594.60
2022-09-10T19:26:36.664Z,100593.27
2022-09-10T19:31:50.334Z,100592.38
2022-09-10T19:37:00.414Z,100590.18
2022-09-10T19:42:08.190Z,100585.27
2022-09-10T19:47:13.825Z,100579.13
2022-09-10T19:52:25.842Z,100565.70
2022-09-10T19:57:34.262Z,100568.06
2022-09-10T20:02:42.085Z,100569.45
2022-09-10T20:07:50.248Z,100566.90
2022-09-10T20:13:00.431Z,100565.13
2022-09-10T20:18:17.583Z,100565.77
2022-09-10T20:23:25.652Z,100566.24
2022-09-10T20:28:45.718Z,100567.07
2022-09-10T20:34:09.271Z,100569.45
2022-09-10T20:39:30.499Z,100563.66
2022-09-10T20:44:58.268Z,100555.79
2022-09-10T20:50:11.224Z,100556.27
2022-09-10T20:55:23.699Z,100554.67
2022-09-10T21:00:35.995Z,100554.13
2022-09-10T21:05:49.956Z,100553.07
2022-09-10T21:11:02.257Z,100555.63
2022-09-10T21:16:15.254Z,100555.52
2022-09-10T21:21:26.017Z,100553.30
2022-09-10T21:26:43.664Z,100548.77
2022-09-10T21:32:17.569Z,100548.74
2022-09-10T21:37:25.415Z,100548.93
2022-09-10T21:42:33.163Z,100548.61
2022-09-10T21:47:43.734Z,100550.05
2022-09-10T21:52:49.641Z,100549.65
2022-09-10T21:58:06.770Z,100551.01
2022-09-10T22:03:16.763Z,100553.83
2022-09-10T22:08:32.900Z,100545.17
2022-09-10T22:13:43.314Z,100541.09
2022-09-10T22:18:51.249Z,100534.16
2022-09-10T22:23:59.368Z,100537.68
2022-09-10T22:29:19.255Z,100535.51
2022-09-10T22:34:27.716Z,100533.35
2022-09-10T22:39:37.338Z,100532.70
2022-09-10T22:44:49.433Z,100538.30
2022-09-10T22:49:57.886Z,100536.34
2022-09-10T22:55:09.953Z,100535.88
2022-09-10T23:00:18.015Z,100532.08
2022-09-10T23:05:25.491Z,100530.45
2022-09-10T23:10:31.486Z,100524.55
2022-09-10T23:15:46.621Z,100523.95
2022-09-10T23:20:54.157Z,100524.92
2022-09-10T23:26:13.224Z,100522.79
2022-09-10T23:31:25.698Z,100517.71
2022-09-10T23:36:49.094Z,100521.34
2022-09-10T23:42:10.904Z,100523.33
2022-09-10T23:47:21.234Z,100521.59
2022-09-10T23:52:48.918Z,100519.48
2022-09-10T23:58:17.151Z,100508.09
